sensor_id;sensor_type;location;lat;lon;timestamp;P1;durP1;ratioP1;P2;durP2;ratioP2
5295;SDS011;2670;42.720;23.336;2022-08-04T00:00:29;7.60;;;6.77;;
5295;SDS011;2670;42.720;23.336;2022-08-04T00:03:11;8.83;;;6.27;;
5295;SDS011;2670;42.720;23.336;2022-08-04T00:05:43;12.13;;;7.17;;
5295;SDS011;2670;42.720;23.336;2022-08-04T00:08:30;8.87;;;6.50;;
5295;SDS011;2670;42.720;23.336;2022-08-04T00:11:04;10.77;;;6.73;;
5295;SDS011;2670;42.720;23.336;2022-08-04T00:13:35;7.57;;;6.30;;
5295;SDS011;2670;42.720;23.336;2022-08-04T00:16:04;7.70;;;6.23;;
5295;SDS011;2670;42.720;23.336;2022-08-04T00:18:33;9.20;;;7.13;;
5295;SDS011;2670;42.720;23.336;2022-08-04T00:21:04;9.60;;;7.63;;
5295;SDS011;2670;42.720;23.336;2022-08-04T00:23:33;8.70;;;6.93;;
5295;SDS011;2670;42.720;23.336;2022-08-04T00:26:01;7.90;;;6.60;;
5295;SDS011;2670;42.720;23.336;2022-08-04T00:28:29;15.60;;;6.83;;
5295;SDS011;2670;42.720;23.336;2022-08-04T00:30:56;7.80;;;5.90;;
5295;SDS011;2670;42.720;23.336;2022-08-04T00:33:23;12.73;;;6.60;;
5295;SDS011;2670;42.720;23.336;2022-08-04T00:35:51;10.00;;;6.33;;
5295;SDS011;2670;42.720;23.336;2022-08-04T00:38:18;12.40;;;6.67;;
5295;SDS011;2670;42.720;23.336;2022-08-04T00:40:48;8.90;;;6.80;;
5295;SDS011;2670;42.720;23.336;2022-08-04T00:43:33;8.30;;;6.30;;
5295;SDS011;2670;42.720;23.336;2022-08-04T00:49:13;9.73;;;7.17;;
5295;SDS011;2670;42.720;23.336;2022-08-04T00:52:01;8.30;;;7.47;;
5295;SDS011;2670;42.720;23.336;2022-08-04T00:54:44;10.70;;;7.67;;
5295;SDS011;2670;42.720;23.336;2022-08-04T00:57:27;9.57;;;6.87;;
5295;SDS011;2670;42.720;23.336;2022-08-04T01:00:07;8.70;;;7.33;;
5295;SDS011;2670;42.720;23.336;2022-08-04T01:02:37;11.47;;;7.73;;
5295;SDS011;2670;42.720;23.336;2022-08-04T01:05:14;14.07;;;7.60;;
5295;SDS011;2670;42.720;23.336;2022-08-04T01:07:48;10.83;;;7.47;;
5295;SDS011;2670;42.720;23.336;2022-08-04T01:10:45;10.80;;;7.70;;
5295;SDS011;2670;42.720;23.336;2022-08-04T01:13:25;10.77;;;7.80;;
5295;SDS011;2670;42.720;23.336;2022-08-04T01:16:15;15.23;;;8.77;;
5295;SDS011;2670;42.720;23.336;2022-08-04T01:18:45;12.10;;;8.80;;
5295;SDS011;2670;42.720;23.336;2022-08-04T01:24:44;14.63;;;9.20;;
5295;SDS011;2670;42.720;23.336;2022-08-04T01:27:25;12.57;;;9.23;;
5295;SDS011;2670;42.720;23.336;2022-08-04T01:30:00;12.20;;;9.23;;
5295;SDS011;2670;42.720;23.336;2022-08-04T01:32:31;15.03;;;9.30;;
5295;SDS011;2670;42.720;23.336;2022-08-04T01:35:03;10.50;;;9.00;;
5295;SDS011;2670;42.720;23.336;2022-08-04T01:37:39;12.20;;;8.27;;
5295;SDS011;2670;42.720;23.336;2022-08-04T01:40:14;9.87;;;8.07;;
5295;SDS011;2670;42.720;23.336;2022-08-04T01:42:42;14.97;;;7.03;;
5295;SDS011;2670;42.720;23.336;2022-08-04T01:45:12;9.30;;;7.13;;
5295;SDS011;2670;42.720;23.336;2022-08-04T01:47:41;8.70;;;6.97;;
5295;SDS011;2670;42.720;23.336;2022-08-04T01:50:13;7.93;;;6.77;;
5295;SDS011;2670;42.720;23.336;2022-08-04T01:52:41;7.83;;;6.57;;
5295;SDS011;2670;42.720;23.336;2022-08-04T01:55:09;10.93;;;5.83;;
5295;SDS011;2670;42.720;23.336;2022-08-04T01:57:40;8.77;;;6.40;;
5295;SDS011;2670;42.720;23.336;2022-08-04T02:00:08;9.50;;;6.27;;
5295;SDS011;2670;42.720;23.336;2022-08-04T02:02:37;9.43;;;5.90;;
5295;SDS011;2670;42.720;23.336;2022-08-04T02:05:04;7.57;;;5.97;;
5295;SDS011;2670;42.720;23.336;2022-08-04T02:07:36;10.50;;;6.30;;
5295;SDS011;2670;42.720;23.336;2022-08-04T02:10:12;10.40;;;7.13;;
5295;SDS011;2670;42.720;23.336;2022-08-04T02:12:51;7.70;;;6.00;;
5295;SDS011;2670;42.720;23.336;2022-08-04T02:15:27;9.30;;;6.60;;
5295;SDS011;2670;42.720;23.336;2022-08-04T02:17:58;9.53;;;6.10;;
5295;SDS011;2670;42.720;23.336;2022-08-04T02:20:29;7.67;;;6.00;;
5295;SDS011;2670;42.720;23.336;2022-08-04T02:23:00;10.90;;;6.83;;
5295;SDS011;2670;42.720;23.336;2022-08-04T02:25:38;9.60;;;6.50;;
5295;SDS011;2670;42.720;23.336;2022-08-04T02:28:11;10.93;;;6.60;;
5295;SDS011;2670;42.720;23.336;2022-08-04T02:30:45;10.93;;;6.90;;
5295;SDS011;2670;42.720;23.336;2022-08-04T02:33:22;9.67;;;6.47;;
5295;SDS011;2670;42.720;23.336;2022-08-04T02:35:53;8.07;;;6.90;;
5295;SDS011;2670;42.720;23.336;2022-08-04T02:38:26;7.60;;;6.80;;
5295;SDS011;2670;42.720;23.336;2022-08-04T02:41:03;9.27;;;6.43;;
5295;SDS011;2670;42.720;23.336;2022-08-04T02:43:31;10.73;;;6.13;;
5295;SDS011;2670;42.720;23.336;2022-08-04T02:46:01;7.10;;;6.43;;
5295;SDS011;2670;42.720;23.336;2022-08-04T02:48:31;10.33;;;6.60;;
5295;SDS011;2670;42.720;23.336;2022-08-04T02:51:00;6.80;;;6.10;;
5295;SDS011;2670;42.720;23.336;2022-08-04T02:53:29;11.50;;;6.93;;
5295;SDS011;2670;42.720;23.336;2022-08-04T02:56:02;7.80;;;6.97;;
5295;SDS011;2670;42.720;23.336;2022-08-04T02:58:33;11.10;;;7.60;;
5295;SDS011;2670;42.720;23.336;2022-08-04T03:01:01;8.60;;;7.63;;
5295;SDS011;2670;42.720;23.336;2022-08-04T03:03:30;9.20;;;7.10;;
5295;SDS011;2670;42.720;23.336;2022-08-04T03:06:21;9.53;;;7.63;;
5295;SDS011;2670;42.720;23.336;2022-08-04T03:12:05;8.30;;;6.53;;
5295;SDS011;2670;42.720;23.336;2022-08-04T03:15:04;9.77;;;6.50;;
5295;SDS011;2670;42.720;23.336;2022-08-04T03:21:27;12.83;;;7.40;;
5295;SDS011;2670;42.720;23.336;2022-08-04T03:24:37;10.63;;;6.80;;
5295;SDS011;2670;42.720;23.336;2022-08-04T03:27:37;12.23;;;7.20;;
5295;SDS011;2670;42.720;23.336;2022-08-04T03:30:27;14.60;;;7.40;;
5295;SDS011;2670;42.720;23.336;2022-08-04T03:36:15;11.63;;;7.00;;
5295;SDS011;2670;42.720;23.336;2022-08-04T03:39:30;21.30;;;7.40;;
5295;SDS011;2670;42.720;23.336;2022-08-04T03:45:31;7.73;;;6.73;;
5295;SDS011;2670;42.720;23.336;2022-08-04T03:51:26;12.03;;;6.43;;
5295;SDS011;2670;42.720;23.336;2022-08-04T04:00:38;12.83;;;7.70;;
5295;SDS011;2670;42.720;23.336;2022-08-04T04:03:20;16.73;;;7.90;;
5295;SDS011;2670;42.720;23.336;2022-08-04T04:09:26;15.50;;;7.90;;
5295;SDS011;2670;42.720;23.336;2022-08-04T04:12:09;10.27;;;7.27;;
5295;SDS011;2670;42.720;23.336;2022-08-04T04:14:48;12.97;;;8.13;;
5295;SDS011;2670;42.720;23.336;2022-08-04T04:17:34;11.17;;;8.23;;
5295;SDS011;2670;42.720;23.336;2022-08-04T04:20:24;10.83;;;8.17;;
5295;SDS011;2670;42.720;23.336;2022-08-04T04:23:11;16.33;;;8.90;;
5295;SDS011;2670;42.720;23.336;2022-08-04T04:25:49;15.10;;;7.87;;
5295;SDS011;2670;42.720;23.336;2022-08-04T04:28:28;11.60;;;7.57;;
5295;SDS011;2670;42.720;23.336;2022-08-04T04:31:14;10.03;;;8.90;;
5295;SDS011;2670;42.720;23.336;2022-08-04T04:34:02;18.83;;;9.83;;
5295;SDS011;2670;42.720;23.336;2022-08-04T04:36:43;13.43;;;8.63;;
5295;SDS011;2670;42.720;23.336;2022-08-04T04:39:27;14.40;;;9.00;;
5295;SDS011;2670;42.720;23.336;2022-08-04T04:42:06;17.00;;;9.10;;
5295;SDS011;2670;42.720;23.336;2022-08-04T04:45:02;10.13;;;8.90;;
5295;SDS011;2670;42.720;23.336;2022-08-04T04:47:41;13.20;;;9.20;;
5295;SDS011;2670;42.720;23.336;2022-08-04T04:50:19;10.97;;;8.73;;
5295;SDS011;2670;42.720;23.336;2022-08-04T04:52:54;12.70;;;8.60;;
5295;SDS011;2670;42.720;23.336;2022-08-04T04:55:30;11.27;;;9.47;;
5295;SDS011;2670;42.720;23.336;2022-08-04T04:58:01;16.30;;;9.17;;
5295;SDS011;2670;42.720;23.336;2022-08-04T05:00:32;12.93;;;8.10;;
5295;SDS011;2670;42.720;23.336;2022-08-04T05:06:15;22.23;;;8.87;;
5295;SDS011;2670;42.720;23.336;2022-08-04T05:08:57;13.60;;;7.43;;
5295;SDS011;2670;42.720;23.336;2022-08-04T05:11:57;17.27;;;8.00;;
5295;SDS011;2670;42.720;23.336;2022-08-04T05:14:40;13.70;;;8.30;;
5295;SDS011;2670;42.720;23.336;2022-08-04T05:17:14;14.30;;;8.77;;
5295;SDS011;2670;42.720;23.336;2022-08-04T05:22:34;13.80;;;9.17;;
5295;SDS011;2670;42.720;23.336;2022-08-04T05:25:06;13.23;;;9.03;;
5295;SDS011;2670;42.720;23.336;2022-08-04T05:27:39;10.90;;;8.87;;
5295;SDS011;2670;42.720;23.336;2022-08-04T05:30:11;15.17;;;10.60;;
5295;SDS011;2670;42.720;23.336;2022-08-04T05:32:47;13.90;;;9.33;;
5295;SDS011;2670;42.720;23.336;2022-08-04T05:35:23;13.13;;;10.17;;
5295;SDS011;2670;42.720;23.336;2022-08-04T05:37:55;14.90;;;10.10;;
5295;SDS011;2670;42.720;23.336;2022-08-04T05:40:24;13.90;;;9.40;;
5295;SDS011;2670;42.720;23.336;2022-08-04T05:42:52;22.13;;;11.43;;
5295;SDS011;2670;42.720;23.336;2022-08-04T05:45:20;15.63;;;10.43;;
5295;SDS011;2670;42.720;23.336;2022-08-04T05:47:50;20.43;;;9.97;;
5295;SDS011;2670;42.720;23.336;2022-08-04T05:50:18;12.90;;;9.70;;
5295;SDS011;2670;42.720;23.336;2022-08-04T05:52:45;13.60;;;10.80;;
5295;SDS011;2670;42.720;23.336;2022-08-04T05:55:13;14.50;;;10.10;;
5295;SDS011;2670;42.720;23.336;2022-08-04T05:57:41;14.10;;;11.40;;
5295;SDS011;2670;42.720;23.336;2022-08-04T06:00:09;17.60;;;11.00;;
5295;SDS011;2670;42.720;23.336;2022-08-04T06:02:37;16.90;;;11.87;;
5295;SDS011;2670;42.720;23.336;2022-08-04T06:05:06;23.83;;;12.70;;
5295;SDS011;2670;42.720;23.336;2022-08-04T06:07:34;18.03;;;12.57;;
5295;SDS011;2670;42.720;23.336;2022-08-04T06:10:01;17.90;;;14.10;;
5295;SDS011;2670;42.720;23.336;2022-08-04T06:12:29;20.50;;;14.37;;
5295;SDS011;2670;42.720;23.336;2022-08-04T06:15:01;19.13;;;13.60;;
5295;SDS011;2670;42.720;23.336;2022-08-04T06:17:30;18.57;;;14.43;;
5295;SDS011;2670;42.720;23.336;2022-08-04T06:19:59;24.83;;;14.47;;
5295;SDS011;2670;42.720;23.336;2022-08-04T06:22:29;24.37;;;14.17;;
5295;SDS011;2670;42.720;23.336;2022-08-04T06:24:59;26.13;;;16.60;;
5295;SDS011;2670;42.720;23.336;2022-08-04T06:27:27;21.30;;;15.17;;
5295;SDS011;2670;42.720;23.336;2022-08-04T06:29:55;19.47;;;15.83;;
5295;SDS011;2670;42.720;23.336;2022-08-04T06:32:24;20.03;;;16.63;;
5295;SDS011;2670;42.720;23.336;2022-08-04T06:34:53;26.03;;;15.93;;
5295;SDS011;2670;42.720;23.336;2022-08-04T06:37:21;18.77;;;15.23;;
5295;SDS011;2670;42.720;23.336;2022-08-04T06:39:50;22.43;;;14.90;;
5295;SDS011;2670;42.720;23.336;2022-08-04T06:42:19;19.40;;;14.40;;
5295;SDS011;2670;42.720;23.336;2022-08-04T06:44:50;26.00;;;15.53;;
5295;SDS011;2670;42.720;23.336;2022-08-04T06:47:19;21.80;;;13.60;;
5295;SDS011;2670;42.720;23.336;2022-08-04T06:49:47;16.93;;;12.63;;
5295;SDS011;2670;42.720;23.336;2022-08-04T06:52:16;17.03;;;11.10;;
5295;SDS011;2670;42.720;23.336;2022-08-04T06:54:45;19.60;;;11.70;;
5295;SDS011;2670;42.720;23.336;2022-08-04T06:57:14;19.80;;;11.90;;
5295;SDS011;2670;42.720;23.336;2022-08-04T06:59:45;16.50;;;10.30;;
5295;SDS011;2670;42.720;23.336;2022-08-04T07:02:14;19.43;;;9.93;;
5295;SDS011;2670;42.720;23.336;2022-08-04T07:04:43;22.30;;;11.80;;
5295;SDS011;2670;42.720;23.336;2022-08-04T07:07:11;42.10;;;19.97;;
5295;SDS011;2670;42.720;23.336;2022-08-04T07:09:39;48.50;;;23.73;;
5295;SDS011;2670;42.720;23.336;2022-08-04T07:12:06;46.17;;;22.13;;
5295;SDS011;2670;42.720;23.336;2022-08-04T07:14:35;38.33;;;20.37;;
5295;SDS011;2670;42.720;23.336;2022-08-04T07:17:02;28.00;;;16.63;;
5295;SDS011;2670;42.720;23.336;2022-08-04T07:19:30;35.37;;;15.73;;
5295;SDS011;2670;42.720;23.336;2022-08-04T07:21:57;25.90;;;14.90;;
5295;SDS011;2670;42.720;23.336;2022-08-04T07:24:28;25.03;;;12.37;;
5295;SDS011;2670;42.720;23.336;2022-08-04T07:26:55;20.73;;;11.90;;
5295;SDS011;2670;42.720;23.336;2022-08-04T07:29:22;26.73;;;11.20;;
5295;SDS011;2670;42.720;23.336;2022-08-04T07:31:52;17.27;;;11.00;;
5295;SDS011;2670;42.720;23.336;2022-08-04T07:34:20;17.03;;;10.57;;
5295;SDS011;2670;42.720;23.336;2022-08-04T07:36:48;19.33;;;10.90;;
5295;SDS011;2670;42.720;23.336;2022-08-04T07:39:16;17.33;;;10.17;;
5295;SDS011;2670;42.720;23.336;2022-08-04T07:41:43;21.80;;;10.27;;
5295;SDS011;2670;42.720;23.336;2022-08-04T07:44:10;18.30;;;9.20;;
5295;SDS011;2670;42.720;23.336;2022-08-04T07:46:39;18.57;;;10.73;;
5295;SDS011;2670;42.720;23.336;2022-08-04T07:49:08;26.50;;;11.03;;
5295;SDS011;2670;42.720;23.336;2022-08-04T07:51:35;14.27;;;9.87;;
5295;SDS011;2670;42.720;23.336;2022-08-04T07:54:02;16.80;;;9.50;;
5295;SDS011;2670;42.720;23.336;2022-08-04T07:56:30;14.23;;;8.67;;
5295;SDS011;2670;42.720;23.336;2022-08-04T07:58:58;10.13;;;8.37;;
5295;SDS011;2670;42.720;23.336;2022-08-04T08:01:25;18.93;;;8.53;;
5295;SDS011;2670;42.720;23.336;2022-08-04T08:03:53;11.50;;;8.03;;
5295;SDS011;2670;42.720;23.336;2022-08-04T08:06:23;10.10;;;8.20;;
5295;SDS011;2670;42.720;23.336;2022-08-04T08:08:54;11.13;;;7.40;;
5295;SDS011;2670;42.720;23.336;2022-08-04T08:11:21;10.43;;;7.97;;
5295;SDS011;2670;42.720;23.336;2022-08-04T08:13:48;9.23;;;6.97;;
5295;SDS011;2670;42.720;23.336;2022-08-04T08:16:15;8.47;;;7.13;;
5295;SDS011;2670;42.720;23.336;2022-08-04T08:18:45;11.60;;;7.27;;
5295;SDS011;2670;42.720;23.336;2022-08-04T08:21:11;10.77;;;6.70;;
5295;SDS011;2670;42.720;23.336;2022-08-04T08:23:40;10.63;;;6.80;;
5295;SDS011;2670;42.720;23.336;2022-08-04T08:26:07;11.00;;;6.97;;
5295;SDS011;2670;42.720;23.336;2022-08-04T08:28:34;11.20;;;6.90;;
5295;SDS011;2670;42.720;23.336;2022-08-04T08:31:01;13.37;;;6.67;;
5295;SDS011;2670;42.720;23.336;2022-08-04T08:33:28;11.87;;;6.73;;
5295;SDS011;2670;42.720;23.336;2022-08-04T08:35:56;7.90;;;6.13;;
5295;SDS011;2670;42.720;23.336;2022-08-04T08:38:37;7.53;;;5.27;;
5295;SDS011;2670;42.720;23.336;2022-08-04T08:47:34;13.90;;;6.33;;
5295;SDS011;2670;42.720;23.336;2022-08-04T08:50:30;12.80;;;6.00;;
5295;SDS011;2670;42.720;23.336;2022-08-04T08:53:13;14.07;;;6.20;;
5295;SDS011;2670;42.720;23.336;2022-08-04T08:55:56;8.07;;;5.70;;
5295;SDS011;2670;42.720;23.336;2022-08-04T08:58:37;7.40;;;6.30;;
5295;SDS011;2670;42.720;23.336;2022-08-04T09:01:23;8.43;;;6.00;;
5295;SDS011;2670;42.720;23.336;2022-08-04T09:07:25;10.87;;;6.60;;
5295;SDS011;2670;42.720;23.336;2022-08-04T09:10:07;15.50;;;6.13;;
5295;SDS011;2670;42.720;23.336;2022-08-04T09:12:45;11.50;;;6.80;;
5295;SDS011;2670;42.720;23.336;2022-08-04T09:15:21;11.77;;;6.77;;
5295;SDS011;2670;42.720;23.336;2022-08-04T09:17:56;15.80;;;7.00;;
5295;SDS011;2670;42.720;23.336;2022-08-04T09:20:28;11.80;;;7.33;;
5295;SDS011;2670;42.720;23.336;2022-08-04T09:23:03;10.57;;;5.70;;
5295;SDS011;2670;42.720;23.336;2022-08-04T09:25:40;9.23;;;4.93;;
5295;SDS011;2670;42.720;23.336;2022-08-04T09:28:16;10.33;;;5.20;;
5295;SDS011;2670;42.720;23.336;2022-08-04T09:30:48;7.70;;;5.50;;
5295;SDS011;2670;42.720;23.336;2022-08-04T09:33:24;7.40;;;4.80;;
5295;SDS011;2670;42.720;23.336;2022-08-04T09:35:58;8.30;;;5.23;;
5295;SDS011;2670;42.720;23.336;2022-08-04T09:38:32;9.07;;;5.23;;
5295;SDS011;2670;42.720;23.336;2022-08-04T09:41:02;11.17;;;6.00;;
5295;SDS011;2670;42.720;23.336;2022-08-04T09:43:46;7.63;;;5.03;;
5295;SDS011;2670;42.720;23.336;2022-08-04T09:46:22;10.73;;;6.03;;
5295;SDS011;2670;42.720;23.336;2022-08-04T09:48:54;7.60;;;4.80;;
5295;SDS011;2670;42.720;23.336;2022-08-04T09:51:30;10.23;;;5.50;;
5295;SDS011;2670;42.720;23.336;2022-08-04T09:54:06;7.23;;;4.70;;
5295;SDS011;2670;42.720;23.336;2022-08-04T09:56:40;7.50;;;3.70;;
5295;SDS011;2670;42.720;23.336;2022-08-04T09:59:19;6.83;;;4.30;;
5295;SDS011;2670;42.720;23.336;2022-08-04T10:01:52;6.73;;;3.63;;
5295;SDS011;2670;42.720;23.336;2022-08-04T10:04:23;6.40;;;4.20;;
5295;SDS011;2670;42.720;23.336;2022-08-04T10:06:55;4.40;;;3.90;;
5295;SDS011;2670;42.720;23.336;2022-08-04T10:09:42;4.70;;;3.27;;
5295;SDS011;2670;42.720;23.336;2022-08-04T10:12:20;4.47;;;2.90;;
5295;SDS011;2670;42.720;23.336;2022-08-04T10:15:01;15.30;;;2.97;;
5295;SDS011;2670;42.720;23.336;2022-08-04T10:17:38;5.03;;;3.13;;
5295;SDS011;2670;42.720;23.336;2022-08-04T10:20:18;11.43;;;3.20;;
5295;SDS011;2670;42.720;23.336;2022-08-04T10:22:56;3.87;;;2.70;;
5295;SDS011;2670;42.720;23.336;2022-08-04T10:25:33;7.10;;;3.23;;
5295;SDS011;2670;42.720;23.336;2022-08-04T10:28:11;8.47;;;3.20;;
5295;SDS011;2670;42.720;23.336;2022-08-04T10:33:32;4.70;;;3.20;;
5295;SDS011;2670;42.720;23.336;2022-08-04T10:36:08;7.87;;;3.30;;
5295;SDS011;2670;42.720;23.336;2022-08-04T10:38:36;3.53;;;2.87;;
5295;SDS011;2670;42.720;23.336;2022-08-04T10:41:12;3.97;;;3.10;;
5295;SDS011;2670;42.720;23.336;2022-08-04T10:43:48;6.30;;;3.23;;
5295;SDS011;2670;42.720;23.336;2022-08-04T10:46:28;3.27;;;2.83;;
5295;SDS011;2670;42.720;23.336;2022-08-04T10:48:58;2.90;;;2.70;;
5295;SDS011;2670;42.720;23.336;2022-08-04T10:51:32;4.37;;;2.97;;
5295;SDS011;2670;42.720;23.336;2022-08-04T10:54:05;4.53;;;2.80;;
5295;SDS011;2670;42.720;23.336;2022-08-04T10:56:35;4.33;;;2.83;;
5295;SDS011;2670;42.720;23.336;2022-08-04T10:59:07;9.43;;;2.83;;
5295;SDS011;2670;42.720;23.336;2022-08-04T11:01:39;4.40;;;2.97;;
5295;SDS011;2670;42.720;23.336;2022-08-04T11:04:11;5.40;;;3.40;;
5295;SDS011;2670;42.720;23.336;2022-08-04T11:06:48;7.00;;;3.03;;
5295;SDS011;2670;42.720;23.336;2022-08-04T11:09:17;4.90;;;2.90;;
5295;SDS011;2670;42.720;23.336;2022-08-04T11:11:46;4.40;;;3.43;;
5295;SDS011;2670;42.720;23.336;2022-08-04T11:14:19;5.97;;;2.93;;
5295;SDS011;2670;42.720;23.336;2022-08-04T11:16:53;3.50;;;2.53;;
5295;SDS011;2670;42.720;23.336;2022-08-04T11:19:28;4.60;;;2.97;;
5295;SDS011;2670;42.720;23.336;2022-08-04T11:22:02;3.70;;;2.40;;
5295;SDS011;2670;42.720;23.336;2022-08-04T11:24:34;3.83;;;2.77;;
5295;SDS011;2670;42.720;23.336;2022-08-04T11:27:08;6.90;;;2.47;;
5295;SDS011;2670;42.720;23.336;2022-08-04T11:29:40;3.30;;;3.00;;
5295;SDS011;2670;42.720;23.336;2022-08-04T11:32:18;3.70;;;2.40;;
5295;SDS011;2670;42.720;23.336;2022-08-04T11:34:51;4.40;;;2.70;;
5295;SDS011;2670;42.720;23.336;2022-08-04T11:37:24;5.20;;;2.93;;
5295;SDS011;2670;42.720;23.336;2022-08-04T11:39:59;11.77;;;3.53;;
5295;SDS011;2670;42.720;23.336;2022-08-04T11:42:35;3.93;;;2.93;;
5295;SDS011;2670;42.720;23.336;2022-08-04T11:45:04;8.73;;;2.80;;
5295;SDS011;2670;42.720;23.336;2022-08-04T11:47:35;4.80;;;2.50;;
5295;SDS011;2670;42.720;23.336;2022-08-04T11:50:11;5.43;;;3.17;;
5295;SDS011;2670;42.720;23.336;2022-08-04T11:52:45;4.57;;;3.23;;
5295;SDS011;2670;42.720;23.336;2022-08-04T11:55:15;3.03;;;2.70;;
5295;SDS011;2670;42.720;23.336;2022-08-04T11:57:45;5.73;;;3.30;;
5295;SDS011;2670;42.720;23.336;2022-08-04T12:00:13;4.40;;;2.80;;
5295;SDS011;2670;42.720;23.336;2022-08-04T12:02:54;8.10;;;2.80;;
5295;SDS011;2670;42.720;23.336;2022-08-04T12:05:34;3.50;;;3.10;;
5295;SDS011;2670;42.720;23.336;2022-08-04T12:08:21;3.73;;;2.80;;
5295;SDS011;2670;42.720;23.336;2022-08-04T12:11:00;6.57;;;3.00;;
5295;SDS011;2670;42.720;23.336;2022-08-04T12:13:35;3.00;;;2.73;;
5295;SDS011;2670;42.720;23.336;2022-08-04T12:16:09;5.37;;;3.17;;
5295;SDS011;2670;42.720;23.336;2022-08-04T12:18:44;5.50;;;3.20;;
5295;SDS011;2670;42.720;23.336;2022-08-04T12:21:20;4.10;;;3.03;;
5295;SDS011;2670;42.720;23.336;2022-08-04T12:23:50;3.60;;;2.70;;
5295;SDS011;2670;42.720;23.336;2022-08-04T12:26:23;3.17;;;2.80;;
5295;SDS011;2670;42.720;23.336;2022-08-04T12:28:57;4.77;;;2.93;;
5295;SDS011;2670;42.720;23.336;2022-08-04T12:31:26;3.50;;;3.00;;
5295;SDS011;2670;42.720;23.336;2022-08-04T12:33:58;4.53;;;3.17;;
5295;SDS011;2670;42.720;23.336;2022-08-04T12:36:31;3.80;;;3.07;;
5295;SDS011;2670;42.720;23.336;2022-08-04T12:39:05;3.20;;;2.90;;
5295;SDS011;2670;42.720;23.336;2022-08-04T12:41:37;3.83;;;3.00;;
5295;SDS011;2670;42.720;23.336;2022-08-04T12:44:06;8.60;;;3.10;;
5295;SDS011;2670;42.720;23.336;2022-08-04T12:46:37;4.00;;;3.10;;
5295;SDS011;2670;42.720;23.336;2022-08-04T12:49:06;4.20;;;3.80;;
5295;SDS011;2670;42.720;23.336;2022-08-04T12:51:36;6.50;;;3.63;;
5295;SDS011;2670;42.720;23.336;2022-08-04T12:54:06;5.07;;;4.23;;
5295;SDS011;2670;42.720;23.336;2022-08-04T12:56:36;5.67;;;3.63;;
5295;SDS011;2670;42.720;23.336;2022-08-04T12:59:06;5.83;;;3.67;;
5295;SDS011;2670;42.720;23.336;2022-08-04T13:01:35;4.47;;;3.60;;
5295;SDS011;2670;42.720;23.336;2022-08-04T13:04:03;5.90;;;3.17;;
5295;SDS011;2670;42.720;23.336;2022-08-04T13:06:40;3.87;;;3.47;;
5295;SDS011;2670;42.720;23.336;2022-08-04T13:09:09;9.87;;;3.50;;
5295;SDS011;2670;42.720;23.336;2022-08-04T13:11:41;7.83;;;3.60;;
5295;SDS011;2670;42.720;23.336;2022-08-04T13:14:12;5.00;;;4.40;;
5295;SDS011;2670;42.720;23.336;2022-08-04T13:16:41;5.80;;;3.20;;
5295;SDS011;2670;42.720;23.336;2022-08-04T13:19:08;6.27;;;3.50;;
5295;SDS011;2670;42.720;23.336;2022-08-04T13:21:40;4.57;;;3.40;;
5295;SDS011;2670;42.720;23.336;2022-08-04T13:24:10;3.77;;;3.20;;
5295;SDS011;2670;42.720;23.336;2022-08-04T13:26:48;5.30;;;3.83;;
5295;SDS011;2670;42.720;23.336;2022-08-04T13:29:18;4.93;;;3.43;;
5295;SDS011;2670;42.720;23.336;2022-08-04T13:31:47;4.87;;;3.50;;
5295;SDS011;2670;42.720;23.336;2022-08-04T13:34:15;3.43;;;2.93;;
5295;SDS011;2670;42.720;23.336;2022-08-04T13:36:45;5.80;;;3.73;;
5295;SDS011;2670;42.720;23.336;2022-08-04T13:39:15;3.90;;;3.27;;
5295;SDS011;2670;42.720;23.336;2022-08-04T13:41:44;3.30;;;3.00;;
5295;SDS011;2670;42.720;23.336;2022-08-04T13:44:14;3.67;;;3.13;;
5295;SDS011;2670;42.720;23.336;2022-08-04T13:46:46;3.50;;;3.20;;
5295;SDS011;2670;42.720;23.336;2022-08-04T13:49:15;3.83;;;3.10;;
5295;SDS011;2670;42.720;23.336;2022-08-04T13:51:50;5.10;;;3.37;;
5295;SDS011;2670;42.720;23.336;2022-08-04T13:54:18;4.90;;;3.60;;
5295;SDS011;2670;42.720;23.336;2022-08-04T13:56:47;3.40;;;2.90;;
5295;SDS011;2670;42.720;23.336;2022-08-04T13:59:16;3.97;;;3.30;;
5295;SDS011;2670;42.720;23.336;2022-08-04T14:01:45;4.53;;;3.80;;
5295;SDS011;2670;42.720;23.336;2022-08-04T14:04:23;3.50;;;3.20;;
5295;SDS011;2670;42.720;23.336;2022-08-04T14:06:54;6.70;;;3.70;;
5295;SDS011;2670;42.720;23.336;2022-08-04T14:09:27;4.40;;;3.17;;
5295;SDS011;2670;42.720;23.336;2022-08-04T14:12:02;3.57;;;3.27;;
5295;SDS011;2670;42.720;23.336;2022-08-04T14:14:31;4.30;;;3.23;;
5295;SDS011;2670;42.720;23.336;2022-08-04T14:17:01;4.83;;;3.20;;
5295;SDS011;2670;42.720;23.336;2022-08-04T14:19:46;5.47;;;3.60;;
5295;SDS011;2670;42.720;23.336;2022-08-04T14:22:33;5.43;;;4.00;;
5295;SDS011;2670;42.720;23.336;2022-08-04T14:25:04;6.20;;;3.20;;
5295;SDS011;2670;42.720;23.336;2022-08-04T14:27:41;4.43;;;3.60;;
5295;SDS011;2670;42.720;23.336;2022-08-04T14:30:22;3.30;;;2.87;;
5295;SDS011;2670;42.720;23.336;2022-08-04T14:32:54;4.80;;;3.30;;
5295;SDS011;2670;42.720;23.336;2022-08-04T14:35:23;3.50;;;3.20;;
5295;SDS011;2670;42.720;23.336;2022-08-04T14:37:54;2.97;;;2.77;;
5295;SDS011;2670;42.720;23.336;2022-08-04T14:40:23;4.73;;;3.40;;
5295;SDS011;2670;42.720;23.336;2022-08-04T14:42:51;3.40;;;3.10;;
5295;SDS011;2670;42.720;23.336;2022-08-04T14:45:18;6.37;;;3.53;;
5295;SDS011;2670;42.720;23.336;2022-08-04T14:48:05;3.43;;;3.10;;
5295;SDS011;2670;42.720;23.336;2022-08-04T14:50:32;4.80;;;3.03;;
5295;SDS011;2670;42.720;23.336;2022-08-04T14:53:01;4.83;;;3.33;;
5295;SDS011;2670;42.720;23.336;2022-08-04T14:55:28;4.00;;;2.90;;
5295;SDS011;2670;42.720;23.336;2022-08-04T14:57:54;4.60;;;3.53;;
5295;SDS011;2670;42.720;23.336;2022-08-04T15:00:23;6.80;;;3.33;;
5295;SDS011;2670;42.720;23.336;2022-08-04T15:02:50;7.23;;;3.37;;
5295;SDS011;2670;42.720;23.336;2022-08-04T15:05:18;3.43;;;3.13;;
5295;SDS011;2670;42.720;23.336;2022-08-04T15:07:45;8.70;;;3.17;;
5295;SDS011;2670;42.720;23.336;2022-08-04T15:10:12;3.30;;;3.00;;
5295;SDS011;2670;42.720;23.336;2022-08-04T15:12:38;6.90;;;4.40;;
5295;SDS011;2670;42.720;23.336;2022-08-04T15:15:05;4.83;;;4.23;;
5295;SDS011;2670;42.720;23.336;2022-08-04T15:17:31;5.00;;;4.17;;
5295;SDS011;2670;42.720;23.336;2022-08-04T15:19:58;5.60;;;3.70;;
5295;SDS011;2670;42.720;23.336;2022-08-04T15:22:26;4.20;;;3.63;;
5295;SDS011;2670;42.720;23.336;2022-08-04T15:24:52;3.50;;;3.20;;
5295;SDS011;2670;42.720;23.336;2022-08-04T15:27:19;5.60;;;3.87;;
5295;SDS011;2670;42.720;23.336;2022-08-04T15:29:46;10.67;;;4.40;;
5295;SDS011;2670;42.720;23.336;2022-08-04T15:32:15;15.10;;;4.17;;
5295;SDS011;2670;42.720;23.336;2022-08-04T15:34:45;4.37;;;3.97;;
5295;SDS011;2670;42.720;23.336;2022-08-04T15:37:12;6.47;;;3.53;;
5295;SDS011;2670;42.720;23.336;2022-08-04T15:39:44;4.57;;;3.87;;
5295;SDS011;2670;42.720;23.336;2022-08-04T15:42:14;6.13;;;3.70;;
5295;SDS011;2670;42.720;23.336;2022-08-04T15:47:28;6.10;;;3.70;;
5295;SDS011;2670;42.720;23.336;2022-08-04T15:50:02;4.87;;;3.70;;
5295;SDS011;2670;42.720;23.336;2022-08-04T15:52:29;6.60;;;3.80;;
5295;SDS011;2670;42.720;23.336;2022-08-04T15:55:33;4.97;;;3.77;;
5295;SDS011;2670;42.720;23.336;2022-08-04T15:58:00;4.67;;;3.37;;
5295;SDS011;2670;42.720;23.336;2022-08-04T16:00:27;4.87;;;3.43;;
5295;SDS011;2670;42.720;23.336;2022-08-04T16:02:54;4.10;;;3.70;;
5295;SDS011;2670;42.720;23.336;2022-08-04T16:05:33;4.13;;;3.73;;
5295;SDS011;2670;42.720;23.336;2022-08-04T16:08:08;3.80;;;3.40;;
5295;SDS011;2670;42.720;23.336;2022-08-04T16:10:37;4.43;;;3.20;;
5295;SDS011;2670;42.720;23.336;2022-08-04T16:13:07;8.30;;;4.90;;
5295;SDS011;2670;42.720;23.336;2022-08-04T16:15:43;12.90;;;6.97;;
5295;SDS011;2670;42.720;23.336;2022-08-04T16:18:11;6.07;;;4.63;;
5295;SDS011;2670;42.720;23.336;2022-08-04T16:20:38;5.63;;;3.97;;
5295;SDS011;2670;42.720;23.336;2022-08-04T16:23:14;5.03;;;3.60;;